NCAR-RAP Real-Time Weather Data

Output produced by METARs form (17 July 2018  04:03 UTC)
found at http://weather.rap.ucar.edu/surface/
 
Conditions at: KZPH observed 17 July 2018  04:15 UTC
Temperature: 24.9°C (77°F)
Dewpoint: 23.5°C (74°F) [RH = 92%]
Pressure (altimeter): 30.09 inches Hg (1019.0 mb)
Winds: calm
Visibility: 10 or more miles (16+ km)
Ceiling: at least 12,000 feet AGL
Clouds: sky clear below 12,000 feet AGL
Present Weather: automated observation with no human augmentation;
there may or may not be significant weather present at this time
KZPH 170415Z AUTO 00000KT 10SM CLR 25/24 A3009 RMK AO2 T02490235

Conditions at: KZPH observed 17 July 2018  03:55 UTC
Temperature: 24.7°C (76°F)
Dewpoint: 23.5°C (74°F) [RH = 93%]
Pressure (altimeter): 30.09 inches Hg (1019.0 mb)
Winds: calm
Visibility: 10 or more miles (16+ km)
Ceiling: at least 12,000 feet AGL
Clouds: sky clear below 12,000 feet AGL
Present Weather: automated observation with no human augmentation;
there may or may not be significant weather present at this time
KZPH 170355Z AUTO 00000KT 10SM CLR 25/24 A3009 RMK AO2 T02470235

Conditions at: KZPH observed 17 July 2018  03:35 UTC
Temperature: 25.3°C (78°F)
Dewpoint: 23.7°C (75°F) [RH = 91%]
Pressure (altimeter): 30.09 inches Hg (1019.0 mb)
Winds: calm
Visibility: 10 or more miles (16+ km)
Ceiling: at least 12,000 feet AGL
Clouds: sky clear below 12,000 feet AGL
Present Weather: automated observation with no human augmentation;
there may or may not be significant weather present at this time
KZPH 170335Z AUTO 00000KT 10SM CLR 25/24 A3009 RMK AO2 T02530237

Conditions at: KZPH observed 17 July 2018  03:15 UTC
Temperature: 25.1°C (77°F)
Dewpoint: 23.8°C (75°F) [RH = 93%]
Pressure (altimeter): 30.09 inches Hg (1019.0 mb)
Winds: calm
Visibility: 10 or more miles (16+ km)
Ceiling: at least 12,000 feet AGL
Clouds: sky clear below 12,000 feet AGL
Present Weather: automated observation with no human augmentation;
there may or may not be significant weather present at this time
KZPH 170315Z AUTO 00000KT 10SM CLR 25/24 A3009 RMK AO2 T02510238

Conditions at: KZPH observed 17 July 2018  02:35 UTC
Temperature: 26.0°C (79°F)
Dewpoint: 24.1°C (75°F) [RH = 89%]
Pressure (altimeter): 30.08 inches Hg (1018.7 mb)
Winds: calm
Visibility: 10 or more miles (16+ km)
Ceiling: at least 12,000 feet AGL
Clouds: sky clear below 12,000 feet AGL
Present Weather: automated observation with no human augmentation;
there may or may not be significant weather present at this time
KZPH 170235Z AUTO 00000KT 10SM CLR 26/24 A3008 RMK AO2 T02600241

Conditions at: KZPH observed 17 July 2018  02:15 UTC
Temperature: 26.2°C (79°F)
Dewpoint: 24.0°C (75°F) [RH = 88%]
Pressure (altimeter): 30.08 inches Hg (1018.7 mb)
Winds: calm
Visibility: 10 or more miles (16+ km)
Ceiling: at least 12,000 feet AGL
Clouds: sky clear below 12,000 feet AGL
Present Weather: automated observation with no human augmentation;
there may or may not be significant weather present at this time
KZPH 170215Z AUTO 00000KT 10SM CLR 26/24 A3008 RMK AO2 T02620240

Conditions at: KZPH observed 17 July 2018  01:55 UTC
Temperature: 26.0°C (79°F)
Dewpoint: 23.9°C (75°F) [RH = 88%]
Pressure (altimeter): 30.08 inches Hg (1018.7 mb)
Winds: calm
Visibility: 10 or more miles (16+ km)
Ceiling: at least 12,000 feet AGL
Clouds: sky clear below 12,000 feet AGL
Present Weather: automated observation with no human augmentation;
there may or may not be significant weather present at this time
KZPH 170155Z AUTO 00000KT 10SM CLR 26/24 A3008 RMK AO2 T02600239

Conditions at: KZPH observed 17 July 2018  01:35 UTC
Temperature: 26.0°C (79°F)
Dewpoint: 24.0°C (75°F) [RH = 89%]
Pressure (altimeter): 30.08 inches Hg (1018.7 mb)
Winds: calm
Visibility: 10 or more miles (16+ km)
Ceiling: at least 12,000 feet AGL
Clouds: sky clear below 12,000 feet AGL
Present Weather: automated observation with no human augmentation;
there may or may not be significant weather present at this time
KZPH 170135Z AUTO 00000KT 10SM CLR 26/24 A3008 RMK AO2 LTG DSNT S T02600240

Conditions at: KZPH observed 17 July 2018  01:15 UTC
Temperature: 26.4°C (80°F)
Dewpoint: 23.8°C (75°F) [RH = 86%]
Pressure (altimeter): 30.07 inches Hg (1018.4 mb)
Winds: calm
Visibility: 10 or more miles (16+ km)
Ceiling: at least 12,000 feet AGL
Clouds: sky clear below 12,000 feet AGL
Present Weather: automated observation with no human augmentation;
there may or may not be significant weather present at this time
KZPH 170115Z AUTO 00000KT 10SM CLR 26/24 A3007 RMK AO2 T02640238

Conditions at: KZPH observed 17 July 2018  00:55 UTC
Temperature: 26.3°C (79°F)
Dewpoint: 23.8°C (75°F) [RH = 86%]
Pressure (altimeter): 30.07 inches Hg (1018.4 mb)
Winds: calm
Visibility: 10 or more miles (16+ km)
Ceiling: at least 12,000 feet AGL
Clouds: sky clear below 12,000 feet AGL
Present Weather: automated observation with no human augmentation;
there may or may not be significant weather present at this time
KZPH 170055Z AUTO 00000KT 10SM CLR 26/24 A3007 RMK AO2 LTG DSNT S T02630238

Conditions at: KZPH observed 17 July 2018  00:35 UTC
Temperature: 26.8°C (80°F)
Dewpoint: 23.7°C (75°F) [RH = 83%]
Pressure (altimeter): 30.06 inches Hg (1018.0 mb)
Winds: calm
Visibility: 10 or more miles (16+ km)
Ceiling: at least 12,000 feet AGL
Clouds: sky clear below 12,000 feet AGL
Present Weather: automated observation with no human augmentation;
there may or may not be significant weather present at this time
KZPH 170035Z AUTO 00000KT 10SM CLR 27/24 A3006 RMK AO2 T02680237

Conditions at: KZPH observed 17 July 2018  00:15 UTC
Temperature: 27.0°C (81°F)
Dewpoint: 23.6°C (74°F) [RH = 82%]
Pressure (altimeter): 30.05 inches Hg (1017.7 mb)
Winds: calm
Visibility: 10 or more miles (16+ km)
Ceiling: at least 12,000 feet AGL
Clouds: scattered clouds at 3900 feet AGL
Present Weather: automated observation with no human augmentation;
there may or may not be significant weather present at this time
KZPH 170015Z AUTO 00000KT 10SM SCT039 27/24 A3005 RMK AO2 T02700236

Conditions at: KZPH observed 16 July 2018  23:55 UTC
Temperature: 27.0°C (81°F)
Dewpoint: 23.7°C (75°F) [RH = 82%]
Pressure (altimeter): 30.06 inches Hg (1018.0 mb)
Winds: calm
Visibility: 10 or more miles (16+ km)
Ceiling: at least 12,000 feet AGL
Clouds: scattered clouds at 3900 feet AGL
scattered clouds at 4500 feet AGL
Present Weather: automated observation with no human augmentation;
there may or may not be significant weather present at this time
KZPH 162355Z AUTO 00000KT 10SM SCT039 SCT045 27/24 A3006 RMK AO2 LTG DSNT S T02700237 10345 20255

Conditions at: KZPH observed 16 July 2018  23:35 UTC
Temperature: 27.1°C (81°F)
Dewpoint: 23.8°C (75°F) [RH = 82%]
Pressure (altimeter): 30.06 inches Hg (1018.0 mb)
Winds: from the SE (130 degrees) at 6 MPH (5 knots; 2.6 m/s)
Visibility: 10 or more miles (16+ km)
Ceiling: at least 12,000 feet AGL
Clouds: scattered clouds at 3900 feet AGL
scattered clouds at 4500 feet AGL
Present Weather: automated observation with no human augmentation;
there may or may not be significant weather present at this time
KZPH 162335Z AUTO 13005KT 10SM SCT039 SCT045 27/24 A3006 RMK AO2 T02710238

Conditions at: KZPH observed 16 July 2018  23:15 UTC
Temperature: 27.1°C (81°F)
Dewpoint: 23.7°C (75°F) [RH = 82%]
Pressure (altimeter): 30.06 inches Hg (1018.0 mb)
Winds: calm
Visibility: 10 or more miles (16+ km)
Ceiling: at least 12,000 feet AGL
Clouds: sky clear below 12,000 feet AGL
Present Weather: automated observation with no human augmentation;
there may or may not be significant weather present at this time
KZPH 162315Z AUTO 00000KT 10SM CLR 27/24 A3006 RMK AO2 LTG DSNT SE T02710237

Conditions at: KZPH observed 16 July 2018  22:55 UTC
Temperature: 27.5°C (82°F)
Dewpoint: 23.5°C (74°F) [RH = 79%]
Pressure (altimeter): 30.05 inches Hg (1017.7 mb)
Winds: calm
Visibility: 10 or more miles (16+ km)
Ceiling: at least 12,000 feet AGL
Clouds: sky clear below 12,000 feet AGL
Present Weather: automated observation with no human augmentation;
there may or may not be significant weather present at this time
KZPH 162255Z AUTO 00000KT 10SM CLR 28/24 A3005 RMK AO2 LTG DSNT SE AND S T02750235

Conditions at: KZPH observed 16 July 2018  22:35 UTC
Temperature: 27.3°C (81°F)
Dewpoint: 23.2°C (74°F) [RH = 78%]
Pressure (altimeter): 30.04 inches Hg (1017.4 mb)
Winds: calm
Visibility: 10 or more miles (16+ km)
Ceiling: at least 12,000 feet AGL
Clouds: sky clear below 12,000 feet AGL
Present Weather: automated observation with no human augmentation;
there may or may not be significant weather present at this time
KZPH 162235Z AUTO 00000KT 10SM CLR 27/23 A3004 RMK AO2 LTG DSNT SE T02730232

Conditions at: KZPH observed 16 July 2018  22:15 UTC
Temperature: 27.0°C (81°F)
Dewpoint: 23.0°C (73°F) [RH = 79%]
Pressure (altimeter): 30.04 inches Hg (1017.4 mb)
Winds: calm
Visibility: 10 or more miles (16+ km)
Ceiling: at least 12,000 feet AGL
Clouds: sky clear below 12,000 feet AGL
Present Weather: VCTS  (thunderstorm in vicinity)
KZPH 162215Z AUTO 00000KT 10SM VCTS CLR 27/23 A3004 RMK AO2 LTG DSNT N SE AND S T02700230

Conditions at: KZPH observed 16 July 2018  21:55 UTC
Temperature: 26.2°C (79°F)
Dewpoint: 23.0°C (73°F) [RH = 83%]
Pressure (altimeter): 30.04 inches Hg (1017.4 mb)
Winds: calm
Visibility: 10 or more miles (16+ km)
Ceiling: at least 12,000 feet AGL
Clouds: sky clear below 12,000 feet AGL
Present Weather: automated observation with no human augmentation;
there may or may not be significant weather present at this time
KZPH 162155Z AUTO 00000KT 10SM CLR 26/23 A3004 RMK AO2 LTG DSNT N SE AND S T02620230

Conditions at: KZPH observed 16 July 2018  21:35 UTC
Temperature: 25.7°C (78°F)
Dewpoint: 23.0°C (73°F) [RH = 85%]
Pressure (altimeter): 30.05 inches Hg (1017.7 mb)
Winds: calm
Visibility: 10 or more miles (16+ km)
Ceiling: at least 12,000 feet AGL
Clouds: sky clear below 12,000 feet AGL
Present Weather: VCTS  (thunderstorm in vicinity)
KZPH 162135Z AUTO 00000KT 10SM VCTS CLR 26/23 A3005 RMK AO2 LTG DSNT NW THRU NE T02570230

Conditions at: KZPH observed 16 July 2018  21:15 UTC
Temperature: 25.9°C (79°F)
Dewpoint: 23.5°C (74°F) [RH = 87%]
Pressure (altimeter): 30.05 inches Hg (1017.7 mb)
Winds: from the WNW (290 degrees) at 7 MPH (6 knots; 3.1 m/s)
Visibility: 10 or more miles (16+ km)
Ceiling: at least 12,000 feet AGL
Clouds: sky clear below 12,000 feet AGL
Present Weather: VCTS  (thunderstorm in vicinity)
KZPH 162115Z AUTO 29006KT 10SM VCTS CLR 26/24 A3005 RMK AO2 LTG DSNT ALQS T02590235

Conditions at: KZPH observed 16 July 2018  20:55 UTC
Temperature: 26.3°C (79°F)
Dewpoint: 22.5°C (72°F) [RH = 80%]
Pressure (altimeter): 30.06 inches Hg (1018.0 mb)
Winds: from the E (90 degrees) at 5 MPH (4 knots; 2.1 m/s)
Visibility: 10 or more miles (16+ km)
Ceiling: 5000 feet AGL
Clouds: scattered clouds at 4100 feet AGL
broken clouds at 5000 feet AGL
broken clouds at 5500 feet AGL
Present Weather: automated observation with no human augmentation;
there may or may not be significant weather present at this time
KZPH 162055Z AUTO 09004KT 10SM SCT041 BKN050 BKN055 26/23 A3006 RMK AO2 LTG DSNT ALQS T02630225

Conditions at: KZPH observed 16 July 2018  20:35 UTC
Temperature: 27.2°C (81°F)
Dewpoint: 22.2°C (72°F) [RH = 74%]
Pressure (altimeter): 30.06 inches Hg (1018.0 mb)
Winds: from the ENE (60 degrees) at 9 MPH (8 knots; 4.2 m/s)
Visibility: 10 or more miles (16+ km)
Ceiling: 4800 feet AGL
Clouds: scattered clouds at 4100 feet AGL
overcast cloud deck at 4800 feet AGL
Present Weather: TS  (thunderstorm)
KZPH 162035Z AUTO 06008KT 10SM TS SCT041 OVC048 27/22 A3006 RMK AO2 LTG DSNT ALQS T02720222

Conditions at: KZPH observed 16 July 2018  20:15 UTC
Temperature: 29.0°C (84°F)
Dewpoint: 22.8°C (73°F) [RH = 69%]
Pressure (altimeter): 30.06 inches Hg (1018.0 mb)
Winds: from the E (90 degrees) at 9 MPH (8 knots; 4.2 m/s)
Visibility: 10 or more miles (16+ km)
Ceiling: 4700 feet AGL
Clouds: broken clouds at 4700 feet AGL
broken clouds at 5000 feet AGL
overcast cloud deck at 8000 feet AGL
Present Weather: TS  (thunderstorm)
KZPH 162015Z AUTO 09008KT 10SM TS BKN047 BKN050 OVC080 29/23 A3006 RMK AO2 LTG DSNT N THRU SE T02900228

Conditions at: KZPH observed 16 July 2018  19:55 UTC
Temperature: 32.1°C (90°F)
Dewpoint: 23.4°C (74°F) [RH = 60%]
Pressure (altimeter): 30.04 inches Hg (1017.4 mb)
Winds: from the W (260 degrees) at 5 MPH (4 knots; 2.1 m/s)
Visibility: 10 or more miles (16+ km)
Ceiling: 5500 feet AGL
Clouds: scattered clouds at 4800 feet AGL
broken clouds at 5500 feet AGL
broken clouds at 7000 feet AGL
Present Weather: VCTS  (thunderstorm in vicinity)
KZPH 161955Z AUTO 26004KT 10SM VCTS SCT048 BKN055 BKN070 32/23 A3004 RMK AO2 LTG DSNT NE THRU S T03210234

Conditions at: KZPH observed 16 July 2018  19:35 UTC
Temperature: 32.1°C (90°F)
Dewpoint: 23.5°C (74°F) [RH = 61%]
Pressure (altimeter): 30.05 inches Hg (1017.7 mb)
Winds: from the W (270 degrees) at 9 MPH (8 knots; 4.2 m/s)
Visibility: 10 or more miles (16+ km)
Ceiling: 5000 feet AGL
Clouds: scattered clouds at 4300 feet AGL
broken clouds at 5000 feet AGL
overcast cloud deck at 7500 feet AGL
Present Weather: VCTS  (thunderstorm in vicinity)
KZPH 161935Z AUTO 27008KT 10SM VCTS SCT043 BKN050 OVC075 32/24 A3005 RMK AO2 LTG DSNT NE THRU SE T03210235

Conditions at: KZPH observed 16 July 2018  19:15 UTC
Temperature: 32.3°C (90°F)
Dewpoint: 24.0°C (75°F) [RH = 62%]
Pressure (altimeter): 30.05 inches Hg (1017.7 mb)
Winds: from the WNW (290 degrees) at 10 MPH (9 knots; 4.7 m/s)
Visibility: 10 or more miles (16+ km)
Ceiling: 4600 feet AGL
Clouds: broken clouds at 4600 feet AGL
broken clouds at 5500 feet AGL
broken clouds at 7500 feet AGL
Present Weather: VCTS  (thunderstorm in vicinity)
KZPH 161915Z AUTO 29009KT 10SM VCTS BKN046 BKN055 BKN075 32/24 A3005 RMK AO2 LTG DSNT NE THRU SE T03230240

Conditions at: KZPH observed 16 July 2018  18:55 UTC
Temperature: 33.7°C (93°F)
Dewpoint: 22.9°C (73°F) [RH = 53%]
Pressure (altimeter): 30.07 inches Hg (1018.4 mb)
Winds: calm
Visibility: 10 or more miles (16+ km)
Ceiling: at least 12,000 feet AGL
Clouds: scattered clouds at 4800 feet AGL
Present Weather: VCTS  (thunderstorm in vicinity)
KZPH 161855Z AUTO 00000KT 10SM VCTS SCT048 34/23 A3007 RMK AO2 LTG DSNT NE THRU SE T03370229

Conditions at: KZPH observed 16 July 2018  18:35 UTC
Temperature: 34.1°C (93°F)
Dewpoint: 22.7°C (73°F) [RH = 52%]
Pressure (altimeter): 30.07 inches Hg (1018.4 mb)
Winds: from the WSW (240 degrees) at 5 MPH (4 knots; 2.1 m/s)
Visibility: 10 or more miles (16+ km)
Ceiling: at least 12,000 feet AGL
Clouds: scattered clouds at 4300 feet AGL
scattered clouds at 4900 feet AGL
Present Weather: automated observation with no human augmentation;
there may or may not be significant weather present at this time
KZPH 161835Z AUTO 24004KT 10SM SCT043 SCT049 34/23 A3007 RMK AO2 LTG DSNT NE AND SE T03410227

Conditions at: KZPH observed 16 July 2018  18:15 UTC
Temperature: 33.4°C (92°F)
Dewpoint: 23.3°C (74°F) [RH = 56%]
Pressure (altimeter): 30.08 inches Hg (1018.7 mb)
Winds: from the SW (230 degrees) at 7 MPH (6 knots; 3.1 m/s)
Visibility: 10 or more miles (16+ km)
Ceiling: at least 12,000 feet AGL
Clouds: scattered clouds at 4300 feet AGL
scattered clouds at 4900 feet AGL
Present Weather: automated observation with no human augmentation;
there may or may not be significant weather present at this time
KZPH 161815Z AUTO 23006KT 10SM SCT043 SCT049 33/23 A3008 RMK AO2 LTG DSNT N AND SE T03340233

Conditions at: KZPH observed 16 July 2018  17:55 UTC
Temperature: 33.9°C (93°F)
Dewpoint: 23.4°C (74°F) [RH = 54%]
Pressure (altimeter): 30.08 inches Hg (1018.7 mb)
Winds: from the SSW (200 degrees) at 7 MPH (6 knots; 3.1 m/s)
Visibility: 10 or more miles (16+ km)
Ceiling: at least 12,000 feet AGL
Clouds: sky clear below 12,000 feet AGL
Present Weather: automated observation with no human augmentation;
there may or may not be significant weather present at this time
KZPH 161755Z AUTO 20006KT 10SM CLR 34/23 A3008 RMK AO2 T03390234 10339 20241

Conditions at: KZPH observed 16 July 2018  17:35 UTC
Temperature: 33.0°C (91°F)
Dewpoint: 23.4°C (74°F) [RH = 57%]
Pressure (altimeter): 30.09 inches Hg (1019.0 mb)
Winds: from the SW (230 degrees) at 7 MPH (6 knots; 3.1 m/s)
Visibility: 10 or more miles (16+ km)
Ceiling: at least 12,000 feet AGL
Clouds: scattered clouds at 3800 feet AGL
Present Weather: automated observation with no human augmentation;
there may or may not be significant weather present at this time
KZPH 161735Z AUTO 23006KT 10SM SCT038 33/23 A3009 RMK AO2 LTG DSNT N T03300234

Conditions at: KZPH observed 16 July 2018  17:15 UTC
Temperature: 33.2°C (92°F)
Dewpoint: 23.5°C (74°F) [RH = 57%]
Pressure (altimeter): 30.10 inches Hg (1019.4 mb)
Winds: from the SSW (210 degrees) at 8 MPH (7 knots; 3.6 m/s)
Visibility: 10 or more miles (16+ km)
Ceiling: at least 12,000 feet AGL
Clouds: scattered clouds at 3800 feet AGL
Present Weather: automated observation with no human augmentation;
there may or may not be significant weather present at this time
KZPH 161715Z AUTO 21007KT 10SM SCT038 33/24 A3010 RMK AO2 T03320235

Conditions at: KZPH observed 16 July 2018  16:55 UTC
Temperature: 33.1°C (92°F)
Dewpoint: 23.7°C (75°F) [RH = 58%]
Pressure (altimeter): 30.10 inches Hg (1019.4 mb)
Winds: from the SSW (210 degrees) at 8 MPH (7 knots; 3.6 m/s)
Visibility: 10 or more miles (16+ km)
Ceiling: at least 12,000 feet AGL
Clouds: sky clear below 12,000 feet AGL
Present Weather: automated observation with no human augmentation;
there may or may not be significant weather present at this time
KZPH 161655Z AUTO 21007KT 10SM CLR 33/24 A3010 RMK AO2 LTG DSNT W T03310237

Conditions at: KZPH observed 16 July 2018  16:35 UTC
Temperature: 32.4°C (90°F)
Dewpoint: 23.1°C (74°F) [RH = 58%]
Pressure (altimeter): 30.11 inches Hg (1019.7 mb)
Winds: from the S (190 degrees) at 5 MPH (4 knots; 2.1 m/s)
Visibility: 10 or more miles (16+ km)
Ceiling: at least 12,000 feet AGL
Clouds: scattered clouds at 3400 feet AGL
Present Weather: automated observation with no human augmentation;
there may or may not be significant weather present at this time
KZPH 161635Z AUTO 19004KT 10SM SCT034 32/23 A3011 RMK AO2 T03240231

Conditions at: KZPH observed 16 July 2018  16:15 UTC
Temperature: 32.0°C (90°F)
Dewpoint: 23.5°C (74°F) [RH = 61%]
Pressure (altimeter): 30.11 inches Hg (1019.7 mb)
Winds: calm
Visibility: 10 or more miles (16+ km)
Ceiling: at least 12,000 feet AGL
Clouds: scattered clouds at 3400 feet AGL
scattered clouds at 4600 feet AGL
scattered clouds at 6000 feet AGL
Present Weather: automated observation with no human augmentation;
there may or may not be significant weather present at this time
KZPH 161615Z AUTO 00000KT 10SM SCT034 SCT046 SCT060 32/24 A3011 RMK AO2 T03200235

Conditions at: KZPH observed 16 July 2018  15:55 UTC
Temperature: 32.0°C (90°F)
Dewpoint: 23.9°C (75°F) [RH = 62%]
Pressure (altimeter): 30.11 inches Hg (1019.7 mb)
Winds: from the ESE (120 degrees) at 5 MPH (4 knots; 2.1 m/s)
Visibility: 10 or more miles (16+ km)
Ceiling: at least 12,000 feet AGL
Clouds: scattered clouds at 3000 feet AGL
scattered clouds at 3700 feet AGL
scattered clouds at 6000 feet AGL
Present Weather: automated observation with no human augmentation;
there may or may not be significant weather present at this time
KZPH 161555Z AUTO 12004KT 10SM SCT030 SCT037 SCT060 32/24 A3011 RMK AO2 T03200239

Conditions at: KZPH observed 16 July 2018  15:35 UTC
Temperature: 31.0°C (88°F)
Dewpoint: 23.5°C (74°F) [RH = 64%]
Pressure (altimeter): 30.11 inches Hg (1019.7 mb)
Winds: calm
Visibility: 10 or more miles (16+ km)
Ceiling: at least 12,000 feet AGL
Clouds: scattered clouds at 2800 feet AGL
Present Weather: automated observation with no human augmentation;
there may or may not be significant weather present at this time
KZPH 161535Z AUTO 00000KT 10SM SCT028 31/24 A3011 RMK AO2 T03100235

Conditions at: KZPH observed 16 July 2018  15:15 UTC
Temperature: 31.2°C (88°F)
Dewpoint: 24.3°C (76°F) [RH = 67%]
Pressure (altimeter): 30.11 inches Hg (1019.7 mb)
Winds: from the SW (220 degrees) at 3 MPH (3 knots; 1.6 m/s)
Visibility: 10 or more miles (16+ km)
Ceiling: at least 12,000 feet AGL
Clouds: sky clear below 12,000 feet AGL
Present Weather: automated observation with no human augmentation;
there may or may not be significant weather present at this time
KZPH 161515Z AUTO 22003KT 10SM CLR 31/24 A3011 RMK AO2 T03120243

Conditions at: KZPH observed 16 July 2018  14:55 UTC
Temperature: 30.8°C (87°F)
Dewpoint: 23.9°C (75°F) [RH = 67%]
Pressure (altimeter): 30.11 inches Hg (1019.7 mb)
Winds: from the SSW (200 degrees) at 3 MPH (3 knots; 1.6 m/s)
Visibility: 10 or more miles (16+ km)
Ceiling: at least 12,000 feet AGL
Clouds: scattered clouds at 2300 feet AGL
Present Weather: automated observation with no human augmentation;
there may or may not be significant weather present at this time
KZPH 161455Z AUTO 20003KT 10SM SCT023 31/24 A3011 RMK AO2 T03080239

Conditions at: KZPH observed 16 July 2018  14:35 UTC
Temperature: 30.3°C (87°F)
Dewpoint: 24.4°C (76°F) [RH = 71%]
Pressure (altimeter): 30.10 inches Hg (1019.4 mb)
Winds: from the S (190 degrees) at 3 MPH (3 knots; 1.6 m/s)
Visibility: 10 or more miles (16+ km)
Ceiling: at least 12,000 feet AGL
Clouds: scattered clouds at 2100 feet AGL
Present Weather: automated observation with no human augmentation;
there may or may not be significant weather present at this time
KZPH 161435Z AUTO 19003KT 10SM SCT021 30/24 A3010 RMK AO2 LTG DSNT SW T03030244

Conditions at: KZPH observed 16 July 2018  14:15 UTC
Temperature: 29.9°C (86°F)
Dewpoint: 24.6°C (76°F) [RH = 73%]
Pressure (altimeter): 30.10 inches Hg (1019.4 mb)
Winds: from the SE (130 degrees) at 3 MPH (3 knots; 1.6 m/s)
Visibility: 10 or more miles (16+ km)
Ceiling: at least 12,000 feet AGL
Clouds: sky clear below 12,000 feet AGL
Present Weather: automated observation with no human augmentation;
there may or may not be significant weather present at this time
KZPH 161415Z AUTO 13003KT 10SM CLR 30/25 A3010 RMK AO2 LTG DSNT SW T02990246

Conditions at: KZPH observed 16 July 2018  13:55 UTC
Temperature: 29.2°C (85°F)
Dewpoint: 24.5°C (76°F) [RH = 76%]
Pressure (altimeter): 30.10 inches Hg (1019.4 mb)
Winds: from the SSE (150 degrees) at 3 MPH (3 knots; 1.6 m/s)
Visibility: 10 or more miles (16+ km)
Ceiling: at least 12,000 feet AGL
Clouds: sky clear below 12,000 feet AGL
Present Weather: automated observation with no human augmentation;
there may or may not be significant weather present at this time
KZPH 161355Z AUTO 15003KT 10SM CLR 29/25 A3010 RMK AO2 T02920245

Conditions at: KZPH observed 16 July 2018  13:35 UTC
Temperature: 28.5°C (83°F)
Dewpoint: 24.8°C (77°F) [RH = 80%]
Pressure (altimeter): 30.09 inches Hg (1019.0 mb)
Winds: calm
Visibility: 10 or more miles (16+ km)
Ceiling: at least 12,000 feet AGL
Clouds: sky clear below 12,000 feet AGL
Present Weather: automated observation with no human augmentation;
there may or may not be significant weather present at this time
KZPH 161335Z AUTO 00000KT 10SM CLR 29/25 A3009 RMK AO2 T02850248

Conditions at: KZPH observed 16 July 2018  13:15 UTC
Temperature: 27.5°C (82°F)
Dewpoint: 25.0°C (77°F) [RH = 86%]
Pressure (altimeter): 30.10 inches Hg (1019.4 mb)
Winds: calm
Visibility: 10 or more miles (16+ km)
Ceiling: at least 12,000 feet AGL
Clouds: sky clear below 12,000 feet AGL
Present Weather: automated observation with no human augmentation;
there may or may not be significant weather present at this time
KZPH 161315Z AUTO 00000KT 10SM CLR 28/25 A3010 RMK AO2 LTG DSNT NW T02750250

Conditions at: KZPH observed 16 July 2018  11:55 UTC
Temperature: 24.0°C (75°F)
Dewpoint: 23.7°C (75°F) [RH = 98%]
Pressure (altimeter): 30.08 inches Hg (1018.7 mb)
Winds: calm
Visibility: 10 or more miles (16+ km)
Ceiling: at least 12,000 feet AGL
Clouds: sky clear below 12,000 feet AGL
Present Weather: automated observation with no human augmentation;
there may or may not be significant weather present at this time
KZPH 161155Z AUTO 00000KT 10SM CLR 24/24 A3008 RMK AO2 LTG DSNT S T02400237 10247 20230

Conditions at: KZPH observed 16 July 2018  11:35 UTC
Temperature: 23.5°C (74°F)
Dewpoint: 23.1°C (74°F) [RH = 98%]
Pressure (altimeter): 30.07 inches Hg (1018.4 mb)
Winds: calm
Visibility: 10 or more miles (16+ km)
Ceiling: at least 12,000 feet AGL
Clouds: sky clear below 12,000 feet AGL
Present Weather: automated observation with no human augmentation;
there may or may not be significant weather present at this time
KZPH 161135Z AUTO 00000KT 10SM CLR 24/23 A3007 RMK AO2 LTG DSNT S T02350231

Conditions at: KZPH observed 16 July 2018  11:15 UTC
Temperature: 23.1°C (74°F)
Dewpoint: 22.8°C (73°F) [RH = 98%]
Pressure (altimeter): 30.06 inches Hg (1018.0 mb)
Winds: calm
Visibility: 10 or more miles (16+ km)
Ceiling: at least 12,000 feet AGL
Clouds: sky clear below 12,000 feet AGL
Present Weather: automated observation with no human augmentation;
there may or may not be significant weather present at this time
KZPH 161115Z AUTO 00000KT 10SM CLR 23/23 A3006 RMK AO2 LTG DSNT S T02310228

Conditions at: KZPH observed 16 July 2018  10:55 UTC
Temperature: 23.5°C (74°F)
Dewpoint: 23.2°C (74°F) [RH = 98%]
Pressure (altimeter): 30.06 inches Hg (1018.0 mb)
Winds: calm
Visibility: 10 or more miles (16+ km)
Ceiling: at least 12,000 feet AGL
Clouds: sky clear below 12,000 feet AGL
Present Weather: automated observation with no human augmentation;
there may or may not be significant weather present at this time
KZPH 161055Z AUTO 00000KT 10SM CLR 24/23 A3006 RMK AO2 T02350232

Conditions at: KZPH observed 16 July 2018  10:35 UTC
Temperature: 23.6°C (74°F)
Dewpoint: 23.1°C (74°F) [RH = 97%]
Pressure (altimeter): 30.06 inches Hg (1018.0 mb)
Winds: calm
Visibility: 10 or more miles (16+ km)
Ceiling: at least 12,000 feet AGL
Clouds: sky clear below 12,000 feet AGL
Present Weather: automated observation with no human augmentation;
there may or may not be significant weather present at this time
KZPH 161035Z AUTO 00000KT 10SM CLR 24/23 A3006 RMK AO2 T02360231

Conditions at: KZPH observed 16 July 2018  10:15 UTC
Temperature: 23.7°C (75°F)
Dewpoint: 23.3°C (74°F) [RH = 98%]
Pressure (altimeter): 30.05 inches Hg (1017.7 mb)
Winds: calm
Visibility: 10 or more miles (16+ km)
Ceiling: at least 12,000 feet AGL
Clouds: sky clear below 12,000 feet AGL
Present Weather: automated observation with no human augmentation;
there may or may not be significant weather present at this time
KZPH 161015Z AUTO 00000KT 10SM CLR 24/23 A3005 RMK AO2 T02370233

Conditions at: KZPH observed 16 July 2018  09:55 UTC
Temperature: 23.5°C (74°F)
Dewpoint: 23.0°C (73°F) [RH = 97%]
Pressure (altimeter): 30.05 inches Hg (1017.7 mb)
Winds: calm
Visibility: 10 or more miles (16+ km)
Ceiling: at least 12,000 feet AGL
Clouds: sky clear below 12,000 feet AGL
Present Weather: automated observation with no human augmentation;
there may or may not be significant weather present at this time
KZPH 160955Z AUTO 00000KT 10SM CLR 24/23 A3005 RMK AO2 T02350230

Conditions at: KZPH observed 16 July 2018  09:35 UTC
Temperature: 23.8°C (75°F)
Dewpoint: 23.4°C (74°F) [RH = 98%]
Pressure (altimeter): 30.05 inches Hg (1017.7 mb)
Winds: calm
Visibility: 10 or more miles (16+ km)
Ceiling: at least 12,000 feet AGL
Clouds: sky clear below 12,000 feet AGL
Present Weather: automated observation with no human augmentation;
there may or may not be significant weather present at this time
KZPH 160935Z AUTO 00000KT 10SM CLR 24/23 A3005 RMK AO2 T02380234

Conditions at: KZPH observed 16 July 2018  09:15 UTC
Temperature: 23.7°C (75°F)
Dewpoint: 23.2°C (74°F) [RH = 97%]
Pressure (altimeter): 30.04 inches Hg (1017.4 mb)
Winds: calm
Visibility: 10 or more miles (16+ km)
Ceiling: at least 12,000 feet AGL
Clouds: sky clear below 12,000 feet AGL
Present Weather: automated observation with no human augmentation;
there may or may not be significant weather present at this time
KZPH 160915Z AUTO 00000KT 10SM CLR 24/23 A3004 RMK AO2 T02370232

Conditions at: KZPH observed 16 July 2018  08:55 UTC
Temperature: 24.2°C (76°F)
Dewpoint: 23.7°C (75°F) [RH = 97%]
Pressure (altimeter): 30.04 inches Hg (1017.4 mb)
Winds: calm
Visibility: 10 or more miles (16+ km)
Ceiling: at least 12,000 feet AGL
Clouds: sky clear below 12,000 feet AGL
Present Weather: automated observation with no human augmentation;
there may or may not be significant weather present at this time
KZPH 160855Z AUTO 00000KT 10SM CLR 24/24 A3004 RMK AO2 T02420237

Conditions at: KZPH observed 16 July 2018  08:35 UTC
Temperature: 24.0°C (75°F)
Dewpoint: 23.5°C (74°F) [RH = 97%]
Pressure (altimeter): 30.05 inches Hg (1017.7 mb)
Winds: calm
Visibility: 10 or more miles (16+ km)
Ceiling: at least 12,000 feet AGL
Clouds: sky clear below 12,000 feet AGL
Present Weather: automated observation with no human augmentation;
there may or may not be significant weather present at this time
KZPH 160835Z AUTO 00000KT 10SM CLR 24/24 A3005 RMK AO2 T02400235

Conditions at: KZPH observed 16 July 2018  08:15 UTC
Temperature: 24.7°C (76°F)
Dewpoint: 23.9°C (75°F) [RH = 95%]
Pressure (altimeter): 30.05 inches Hg (1017.7 mb)
Winds: calm
Visibility: 10 or more miles (16+ km)
Ceiling: at least 12,000 feet AGL
Clouds: sky clear below 12,000 feet AGL
Present Weather: automated observation with no human augmentation;
there may or may not be significant weather present at this time
KZPH 160815Z AUTO 00000KT 10SM CLR 25/24 A3005 RMK AO2 T02470239

Conditions at: KZPH observed 16 July 2018  07:55 UTC
Temperature: 24.3°C (76°F)
Dewpoint: 23.6°C (74°F) [RH = 96%]
Pressure (altimeter): 30.06 inches Hg (1018.0 mb)
Winds: calm
Visibility: 10 or more miles (16+ km)
Ceiling: at least 12,000 feet AGL
Clouds: sky clear below 12,000 feet AGL
Present Weather: automated observation with no human augmentation;
there may or may not be significant weather present at this time
KZPH 160755Z AUTO 00000KT 10SM CLR 24/24 A3006 RMK AO2 T02430236

Conditions at: KZPH observed 16 July 2018  07:35 UTC
Temperature: 24.4°C (76°F)
Dewpoint: 23.9°C (75°F) [RH = 97%]
Pressure (altimeter): 30.06 inches Hg (1018.0 mb)
Winds: calm
Visibility: 10 or more miles (16+ km)
Ceiling: at least 12,000 feet AGL
Clouds: sky clear below 12,000 feet AGL
Present Weather: automated observation with no human augmentation;
there may or may not be significant weather present at this time
KZPH 160735Z AUTO 00000KT 10SM CLR 24/24 A3006 RMK AO2 T02440239

Conditions at: KZPH observed 16 July 2018  07:15 UTC
Temperature: 24.1°C (75°F)
Dewpoint: 23.6°C (74°F) [RH = 97%]
Pressure (altimeter): 30.06 inches Hg (1018.0 mb)
Winds: calm
Visibility: 10 or more miles (16+ km)
Ceiling: at least 12,000 feet AGL
Clouds: sky clear below 12,000 feet AGL
Present Weather: automated observation with no human augmentation;
there may or may not be significant weather present at this time
KZPH 160715Z AUTO 00000KT 10SM CLR 24/24 A3006 RMK AO2 T02410236

Conditions at: KZPH observed 16 July 2018  06:55 UTC
Temperature: 24.5°C (76°F)
Dewpoint: 23.8°C (75°F) [RH = 96%]
Pressure (altimeter): 30.07 inches Hg (1018.4 mb)
Winds: calm
Visibility: 10 or more miles (16+ km)
Ceiling: at least 12,000 feet AGL
Clouds: sky clear below 12,000 feet AGL
Present Weather: automated observation with no human augmentation;
there may or may not be significant weather present at this time
KZPH 160655Z AUTO 00000KT 10SM CLR 25/24 A3007 RMK AO2 T02450238

Conditions at: KZPH observed 16 July 2018  06:35 UTC
Temperature: 24.4°C (76°F)
Dewpoint: 23.8°C (75°F) [RH = 96%]
Pressure (altimeter): 30.07 inches Hg (1018.4 mb)
Winds: calm
Visibility: 10 or more miles (16+ km)
Ceiling: at least 12,000 feet AGL
Clouds: sky clear below 12,000 feet AGL
Present Weather: automated observation with no human augmentation;
there may or may not be significant weather present at this time
KZPH 160635Z AUTO 00000KT 10SM CLR 24/24 A3007 RMK AO2 LTG DSNT NE T02440238

Conditions at: KZPH observed 16 July 2018  06:15 UTC
Temperature: 24.5°C (76°F)
Dewpoint: 23.7°C (75°F) [RH = 95%]
Pressure (altimeter): 30.07 inches Hg (1018.4 mb)
Winds: calm
Visibility: 10 or more miles (16+ km)
Ceiling: at least 12,000 feet AGL
Clouds: sky clear below 12,000 feet AGL
Present Weather: automated observation with no human augmentation;
there may or may not be significant weather present at this time
KZPH 160615Z AUTO 00000KT 10SM CLR 25/24 A3007 RMK AO2 LTG DSNT NE T02450237

Conditions at: KZPH observed 16 July 2018  05:55 UTC
Temperature: 24.5°C (76°F)
Dewpoint: 23.8°C (75°F) [RH = 96%]
Pressure (altimeter): 30.08 inches Hg (1018.7 mb)
Winds: calm
Visibility: 10 or more miles (16+ km)
Ceiling: at least 12,000 feet AGL
Clouds: sky clear below 12,000 feet AGL
Present Weather: automated observation with no human augmentation;
there may or may not be significant weather present at this time
KZPH 160555Z AUTO 00000KT 10SM CLR 25/24 A3008 RMK AO2 LTG DSNT NE T02450238 10285 20243 403410224

Conditions at: KZPH observed 16 July 2018  05:35 UTC
Temperature: 24.5°C (76°F)
Dewpoint: 23.7°C (75°F) [RH = 95%]
Pressure (altimeter): 30.08 inches Hg (1018.7 mb)
Winds: calm
Visibility: 10 or more miles (16+ km)
Ceiling: at least 12,000 feet AGL
Clouds: sky clear below 12,000 feet AGL
Present Weather: automated observation with no human augmentation;
there may or may not be significant weather present at this time
KZPH 160535Z AUTO 00000KT 10SM CLR 25/24 A3008 RMK AO2 LTG DSNT NE AND E T02450237

Conditions at: KZPH observed 16 July 2018  05:15 UTC
Temperature: 24.7°C (76°F)
Dewpoint: 24.0°C (75°F) [RH = 96%]
Pressure (altimeter): 30.08 inches Hg (1018.7 mb)
Winds: calm
Visibility: 10 or more miles (16+ km)
Ceiling: at least 12,000 feet AGL
Clouds: sky clear below 12,000 feet AGL
Present Weather: automated observation with no human augmentation;
there may or may not be significant weather present at this time
KZPH 160515Z AUTO 00000KT 10SM CLR 25/24 A3008 RMK AO2 LTG DSNT NE T02470240

Conditions at: KZPH observed 16 July 2018  04:55 UTC
Temperature: 24.8°C (77°F)
Dewpoint: 24.1°C (75°F) [RH = 96%]
Pressure (altimeter): 30.09 inches Hg (1019.0 mb)
Winds: calm
Visibility: 10 or more miles (16+ km)
Ceiling: at least 12,000 feet AGL
Clouds: sky clear below 12,000 feet AGL
Present Weather: automated observation with no human augmentation;
there may or may not be significant weather present at this time
KZPH 160455Z AUTO 00000KT 10SM CLR 25/24 A3009 RMK AO2 LTG DSNT S T02480241

Conditions at: KZPH observed 16 July 2018  04:35 UTC
Temperature: 25.1°C (77°F)
Dewpoint: 24.3°C (76°F) [RH = 95%]
Pressure (altimeter): 30.10 inches Hg (1019.4 mb)
Winds: calm
Visibility: 10 or more miles (16+ km)
Ceiling: at least 12,000 feet AGL
Clouds: sky clear below 12,000 feet AGL
Present Weather: automated observation with no human augmentation;
there may or may not be significant weather present at this time
KZPH 160435Z AUTO 00000KT 10SM CLR 25/24 A3010 RMK AO2 LTG DSNT S T02510243

Conditions at: KZPH observed 16 July 2018  04:15 UTC
Temperature: 25.2°C (77°F)
Dewpoint: 24.2°C (76°F) [RH = 94%]
Pressure (altimeter): 30.09 inches Hg (1019.0 mb)
Winds: calm
Visibility: 10 or more miles (16+ km)
Ceiling: at least 12,000 feet AGL
Clouds: sky clear below 12,000 feet AGL
Present Weather: automated observation with no human augmentation;
there may or may not be significant weather present at this time
KZPH 160415Z AUTO 00000KT 10SM CLR 25/24 A3009 RMK AO2 LTG DSNT S T02520242

Conditions at: KZPH observed 16 July 2018  03:55 UTC
Temperature: 25.5°C (78°F)
Dewpoint: 24.4°C (76°F) [RH = 94%]
Pressure (altimeter): 30.09 inches Hg (1019.0 mb)
Winds: calm
Visibility: 10 or more miles (16+ km)
Ceiling: at least 12,000 feet AGL
Clouds: sky clear below 12,000 feet AGL
Present Weather: automated observation with no human augmentation;
there may or may not be significant weather present at this time
KZPH 160355Z AUTO 00000KT 10SM CLR 26/24 A3009 RMK AO2 LTG DSNT S T02550244

Conditions at: KZPH observed 16 July 2018  03:35 UTC
Temperature: 25.6°C (78°F)
Dewpoint: 24.3°C (76°F) [RH = 93%]
Pressure (altimeter): 30.08 inches Hg (1018.7 mb)
Winds: calm
Visibility: 10 or more miles (16+ km)
Ceiling: at least 12,000 feet AGL
Clouds: sky clear below 12,000 feet AGL
Present Weather: automated observation with no human augmentation;
there may or may not be significant weather present at this time
KZPH 160335Z AUTO 00000KT 10SM CLR 26/24 A3008 RMK AO2 LTG DSNT E AND S T02560243

Conditions at: KZPH observed 16 July 2018  03:15 UTC
Temperature: 25.6°C (78°F)
Dewpoint: 24.5°C (76°F) [RH = 94%]
Pressure (altimeter): 30.08 inches Hg (1018.7 mb)
Winds: calm
Visibility: 10 or more miles (16+ km)
Ceiling: at least 12,000 feet AGL
Clouds: sky clear below 12,000 feet AGL
Present Weather: automated observation with no human augmentation;
there may or may not be significant weather present at this time
KZPH 160315Z AUTO 00000KT 10SM CLR 26/25 A3008 RMK AO2 LTG DSNT SE AND S T02560245

Conditions at: KZPH observed 16 July 2018  02:55 UTC
Temperature: 25.6°C (78°F)
Dewpoint: 24.5°C (76°F) [RH = 94%]
Pressure (altimeter): 30.08 inches Hg (1018.7 mb)
Winds: calm
Visibility: 10 or more miles (16+ km)
Ceiling: at least 12,000 feet AGL
Clouds: sky clear below 12,000 feet AGL
Present Weather: automated observation with no human augmentation;
there may or may not be significant weather present at this time
KZPH 160255Z AUTO 00000KT 10SM CLR 26/25 A3008 RMK AO2 LTG DSNT S T02560245

Conditions at: KZPH observed 16 July 2018  02:35 UTC
Temperature: 25.6°C (78°F)
Dewpoint: 24.2°C (76°F) [RH = 92%]
Pressure (altimeter): 30.07 inches Hg (1018.4 mb)
Winds: from the NE (40 degrees) at 3 MPH (3 knots; 1.6 m/s)
Visibility: 10 or more miles (16+ km)
Ceiling: at least 12,000 feet AGL
Clouds: sky clear below 12,000 feet AGL
Present Weather: automated observation with no human augmentation;
there may or may not be significant weather present at this time
KZPH 160235Z AUTO 04003KT 10SM CLR 26/24 A3007 RMK AO2 LTG DSNT S T02560242

Conditions at: KZPH observed 16 July 2018  02:15 UTC
Temperature: 26.0°C (79°F)
Dewpoint: 24.2°C (76°F) [RH = 90%]
Pressure (altimeter): 30.06 inches Hg (1018.0 mb)
Winds: calm
Visibility: 10 or more miles (16+ km)
Ceiling: at least 12,000 feet AGL
Clouds: sky clear below 12,000 feet AGL
Present Weather: automated observation with no human augmentation;
there may or may not be significant weather present at this time
KZPH 160215Z AUTO 00000KT 10SM CLR 26/24 A3006 RMK AO2 T02600242

Conditions at: KZPH observed 16 July 2018  01:55 UTC
Temperature: 26.2°C (79°F)
Dewpoint: 24.6°C (76°F) [RH = 91%]
Pressure (altimeter): 30.05 inches Hg (1017.7 mb)
Winds: calm
Visibility: 10 or more miles (16+ km)
Ceiling: at least 12,000 feet AGL
Clouds: sky clear below 12,000 feet AGL
Present Weather: automated observation with no human augmentation;
there may or may not be significant weather present at this time
KZPH 160155Z AUTO 00000KT 10SM CLR 26/25 A3005 RMK AO2 T02620246

Conditions at: KZPH observed 16 July 2018  01:35 UTC
Temperature: 26.5°C (80°F)
Dewpoint: 24.5°C (76°F) [RH = 89%]
Pressure (altimeter): 30.04 inches Hg (1017.4 mb)
Winds: calm
Visibility: 10 or more miles (16+ km)
Ceiling: at least 12,000 feet AGL
Clouds: sky clear below 12,000 feet AGL
Present Weather: automated observation with no human augmentation;
there may or may not be significant weather present at this time
KZPH 160135Z AUTO 00000KT 10SM CLR 27/25 A3004 RMK AO2 LTG DSNT S T02650245

Conditions at: KZPH observed 16 July 2018  01:15 UTC
Temperature: 27.1°C (81°F)
Dewpoint: 24.5°C (76°F) [RH = 86%]
Pressure (altimeter): 30.04 inches Hg (1017.4 mb)
Winds: calm
Visibility: 10 or more miles (16+ km)
Ceiling: at least 12,000 feet AGL
Clouds: sky clear below 12,000 feet AGL
Present Weather: automated observation with no human augmentation;
there may or may not be significant weather present at this time
KZPH 160115Z AUTO 00000KT 10SM CLR 27/25 A3004 RMK AO2 T02710245

Conditions at: KZPH observed 16 July 2018  00:55 UTC
Temperature: 27.6°C (82°F)
Dewpoint: 24.6°C (76°F) [RH = 84%]
Pressure (altimeter): 30.04 inches Hg (1017.4 mb)
Winds: calm
Visibility: 10 or more miles (16+ km)
Ceiling: at least 12,000 feet AGL
Clouds: sky clear below 12,000 feet AGL
Present Weather: automated observation with no human augmentation;
there may or may not be significant weather present at this time
KZPH 160055Z AUTO 00000KT 10SM CLR 28/25 A3004 RMK AO2 T02760246

Conditions at: KZPH observed 16 July 2018  00:35 UTC
Temperature: 27.8°C (82°F)
Dewpoint: 24.5°C (76°F) [RH = 82%]
Pressure (altimeter): 30.03 inches Hg (1017.0 mb)
Winds: calm
Visibility: 10 or more miles (16+ km)
Ceiling: at least 12,000 feet AGL
Clouds: sky clear below 12,000 feet AGL
Present Weather: VCTS  (thunderstorm in vicinity)
KZPH 160035Z AUTO 00000KT 10SM VCTS CLR 28/25 A3003 RMK AO2 LTG DSNT S T02780245

Conditions at: KZPH observed 15 July 2018  23:55 UTC
Temperature: 28.5°C (83°F)
Dewpoint: 24.2°C (76°F) [RH = 78%]
Pressure (altimeter): 30.01 inches Hg (1016.3 mb)
Winds: from the W (280 degrees) at 3 MPH (3 knots; 1.6 m/s)
Visibility: 10 or more miles (16+ km)
Ceiling: at least 12,000 feet AGL
Clouds: sky clear below 12,000 feet AGL
Present Weather: VCTS  (thunderstorm in vicinity)
KZPH 152355Z AUTO 28003KT 10SM VCTS CLR 29/24 A3001 RMK AO2 LTG DSNT SE AND S T02850242 10341 20285

Conditions at: KZPH observed 15 July 2018  23:35 UTC
Temperature: 29.0°C (84°F)
Dewpoint: 24.4°C (76°F) [RH = 76%]
Pressure (altimeter): 30.01 inches Hg (1016.3 mb)
Winds: calm
Visibility: 10 or more miles (16+ km)
Ceiling: at least 12,000 feet AGL
Clouds: sky clear below 12,000 feet AGL
Present Weather: automated observation with no human augmentation;
there may or may not be significant weather present at this time
KZPH 152335Z AUTO 00000KT 10SM CLR 29/24 A3001 RMK AO2 T02900244

Conditions at: KZPH observed 15 July 2018  22:55 UTC
Temperature: 29.5°C (85°F)
Dewpoint: 23.8°C (75°F) [RH = 72%]
Pressure (altimeter): 30.03 inches Hg (1017.0 mb)
Winds: calm
Visibility: 10 or more miles (16+ km)
Ceiling: at least 12,000 feet AGL
Clouds: sky clear below 12,000 feet AGL
Present Weather: automated observation with no human augmentation;
there may or may not be significant weather present at this time
KZPH 152255Z AUTO 00000KT 10SM CLR 30/24 A3003 RMK AO2 T02950238

Conditions at: KZPH observed 15 July 2018  22:35 UTC
Temperature: 29.5°C (85°F)
Dewpoint: 23.6°C (74°F) [RH = 71%]
Pressure (altimeter): 30.03 inches Hg (1017.0 mb)
Winds: from the W (280 degrees) at 3 MPH (3 knots; 1.6 m/s)
Visibility: 10 or more miles (16+ km)
Ceiling: at least 12,000 feet AGL
Clouds: sky clear below 12,000 feet AGL
Present Weather: automated observation with no human augmentation;
there may or may not be significant weather present at this time
KZPH 152235Z AUTO 28003KT 10SM CLR 30/24 A3003 RMK AO2 LTG DSNT NW T02950236

Conditions at: KZPH observed 15 July 2018  22:15 UTC
Temperature: 29.6°C (85°F)
Dewpoint: 23.9°C (75°F) [RH = 72%]
Pressure (altimeter): 30.03 inches Hg (1017.0 mb)
Winds: from the WSW (250 degrees) at 5 MPH (4 knots; 2.1 m/s)
Visibility: 10 or more miles (16+ km)
Ceiling: at least 12,000 feet AGL
Clouds: sky clear below 12,000 feet AGL
Present Weather: automated observation with no human augmentation;
there may or may not be significant weather present at this time
KZPH 152215Z AUTO 25004KT 10SM CLR 30/24 A3003 RMK AO2 LTG DSNT N AND NW T02960239

Conditions at: KZPH observed 15 July 2018  21:55 UTC
Temperature: 29.6°C (85°F)
Dewpoint: 23.7°C (75°F) [RH = 71%]
Pressure (altimeter): 30.03 inches Hg (1017.0 mb)
Winds: from the W (270 degrees) at 6 MPH (5 knots; 2.6 m/s)
Visibility: 10 or more miles (16+ km)
Ceiling: at least 12,000 feet AGL
Clouds: sky clear below 12,000 feet AGL
Present Weather: automated observation with no human augmentation;
there may or may not be significant weather present at this time
KZPH 152155Z AUTO 27005KT 10SM CLR 30/24 A3003 RMK AO2 LTG DSNT N AND NW T02960237

Conditions at: KZPH observed 15 July 2018  21:15 UTC
Temperature: 29.6°C (85°F)
Dewpoint: 23.0°C (73°F) [RH = 68%]
Pressure (altimeter): 30.03 inches Hg (1017.0 mb)
Winds: from the WNW (290 degrees) at 6 MPH (5 knots; 2.6 m/s)
Visibility: 10 or more miles (16+ km)
Ceiling: at least 12,000 feet AGL
Clouds: sky clear below 12,000 feet AGL
Present Weather: automated observation with no human augmentation;
there may or may not be significant weather present at this time
KZPH 152115Z AUTO 29005KT 10SM CLR 30/23 A3003 RMK AO2 T02960230

Conditions at: KZPH observed 15 July 2018  20:55 UTC
Temperature: 30.0°C (86°F)
Dewpoint: 22.5°C (72°F) [RH = 64%]
Pressure (altimeter): 30.04 inches Hg (1017.4 mb)
Winds: from the W (260 degrees) at 7 MPH (6 knots; 3.1 m/s)
Visibility: 10 or more miles (16+ km)
Ceiling: at least 12,000 feet AGL
Clouds: scattered clouds at 5000 feet AGL
scattered clouds at 5500 feet AGL
Present Weather: automated observation with no human augmentation;
there may or may not be significant weather present at this time
KZPH 152055Z AUTO 26006KT 10SM SCT050 SCT055 30/23 A3004 RMK AO2 LTG DSNT NE T03000225

Conditions at: KZPH observed 15 July 2018  20:35 UTC
Temperature: 30.1°C (86°F)
Dewpoint: 22.5°C (72°F) [RH = 64%]
Pressure (altimeter): 30.04 inches Hg (1017.4 mb)
Winds: from the WNW (290 degrees) at 9 MPH (8 knots; 4.2 m/s)
Visibility: 10 or more miles (16+ km)
Ceiling: at least 12,000 feet AGL
Clouds: sky clear below 12,000 feet AGL
Present Weather: automated observation with no human augmentation;
there may or may not be significant weather present at this time
KZPH 152035Z AUTO 29008KT 10SM CLR 30/23 A3004 RMK AO2 LTG DSNT NW THRU NE T03010225

Conditions at: KZPH observed 15 July 2018  20:15 UTC
Temperature: 30.4°C (87°F)
Dewpoint: 23.3°C (74°F) [RH = 66%]
Pressure (altimeter): 30.03 inches Hg (1017.0 mb)
Winds: from the W (260 degrees) at 9 MPH (8 knots; 4.2 m/s)
Visibility: 10 or more miles (16+ km)
Ceiling: at least 12,000 feet AGL
Clouds: scattered clouds at 4900 feet AGL
scattered clouds at 5500 feet AGL
Present Weather: automated observation with no human augmentation;
there may or may not be significant weather present at this time
KZPH 152015Z AUTO 26008KT 10SM SCT049 SCT055 30/23 A3003 RMK AO2 LTG DSNT ALQS T03040233

Conditions at: KZPH observed 15 July 2018  19:55 UTC
Temperature: 31.2°C (88°F)
Dewpoint: 23.4°C (74°F) [RH = 63%]
Pressure (altimeter): 30.05 inches Hg (1017.7 mb)
Winds: from the WNW (300 degrees) at 10 MPH (9 knots; 4.7 m/s)
gusting to 17 MPH (15 knots; 7.8 m/s)
Visibility: 10 or more miles (16+ km)
Ceiling: at least 12,000 feet AGL
Clouds: scattered clouds at 4900 feet AGL
scattered clouds at 5500 feet AGL
Present Weather: TS  (thunderstorm)
KZPH 151955Z AUTO 30009G15KT 10SM TS SCT049 SCT055 31/23 A3005 RMK AO2 LTG DSNT ALQS T03120234

Conditions at: KZPH observed 15 July 2018  19:35 UTC
Temperature: 33.1°C (92°F)
Dewpoint: 22.7°C (73°F) [RH = 55%]
Pressure (altimeter): 30.05 inches Hg (1017.7 mb)
Winds: from the SE (130 degrees) at 7 MPH (6 knots; 3.1 m/s)
Visibility: 10 or more miles (16+ km)
Ceiling: at least 12,000 feet AGL
Clouds: sky clear below 12,000 feet AGL
Present Weather: VCTS  (thunderstorm in vicinity)
KZPH 151935Z AUTO 13006KT 10SM VCTS CLR 33/23 A3005 RMK AO2 LTG DSNT ALQS T03310227

Conditions at: KZPH observed 15 July 2018  19:15 UTC
Temperature: 34.0°C (93°F)
Dewpoint: 22.5°C (72°F) [RH = 51%]
Pressure (altimeter): 30.05 inches Hg (1017.7 mb)
Winds: calm
Visibility: 10 or more miles (16+ km)
Ceiling: at least 12,000 feet AGL
Clouds: scattered clouds at 4100 feet AGL
Present Weather: VCTS  (thunderstorm in vicinity)
KZPH 151915Z AUTO 00000KT 10SM VCTS SCT041 34/23 A3005 RMK AO2 LTG DSNT W THRU N T03400225

Conditions at: KZPH observed 15 July 2018  18:55 UTC
Temperature: 33.3°C (92°F)
Dewpoint: 23.1°C (74°F) [RH = 55%]
Pressure (altimeter): 30.06 inches Hg (1018.0 mb)
Winds: from the SSW (200 degrees) at 5 MPH (4 knots; 2.1 m/s)
Visibility: 10 or more miles (16+ km)
Ceiling: at least 12,000 feet AGL
Clouds: scattered clouds at 4100 feet AGL
Present Weather: automated observation with no human augmentation;
there may or may not be significant weather present at this time
KZPH 151855Z AUTO 20004KT 10SM SCT041 33/23 A3006 RMK AO2 LTG DSNT NE AND SW T03330231

Conditions at: KZPH observed 15 July 2018  18:35 UTC
Temperature: 33.1°C (92°F)
Dewpoint: 22.7°C (73°F) [RH = 55%]
Pressure (altimeter): 30.07 inches Hg (1018.4 mb)
Winds: from the S (190 degrees) at 5 MPH (4 knots; 2.1 m/s)
Visibility: 10 or more miles (16+ km)
Ceiling: at least 12,000 feet AGL
Clouds: sky clear below 12,000 feet AGL
Present Weather: automated observation with no human augmentation;
there may or may not be significant weather present at this time
KZPH 151835Z AUTO 19004KT 10SM CLR 33/23 A3007 RMK AO2 LTG DSNT NE AND SW T03310227

Conditions at: KZPH observed 15 July 2018  18:15 UTC
Temperature: 32.5°C (90°F)
Dewpoint: 23.0°C (73°F) [RH = 57%]
Pressure (altimeter): 30.08 inches Hg (1018.7 mb)
Winds: calm
Visibility: 10 or more miles (16+ km)
Ceiling: at least 12,000 feet AGL
Clouds: sky clear below 12,000 feet AGL
Present Weather: automated observation with no human augmentation;
there may or may not be significant weather present at this time
KZPH 151815Z AUTO 00000KT 10SM CLR 33/23 A3008 RMK AO2 T03250230

Conditions at: KZPH observed 15 July 2018  17:15 UTC
Temperature: 31.9°C (89°F)
Dewpoint: 23.0°C (73°F) [RH = 59%]
Pressure (altimeter): 30.09 inches Hg (1019.0 mb)
Winds: calm
Visibility: 10 or more miles (16+ km)
Ceiling: at least 12,000 feet AGL
Clouds: sky clear below 12,000 feet AGL
Present Weather: automated observation with no human augmentation;
there may or may not be significant weather present at this time
KZPH 151715Z AUTO 00000KT 10SM CLR 32/23 A3009 RMK AO2 LTG DSNT SW T03190230

Conditions at: KZPH observed 15 July 2018  16:55 UTC
Temperature: 31.9°C (89°F)
Dewpoint: 23.6°C (74°F) [RH = 62%]
Pressure (altimeter): 30.09 inches Hg (1019.0 mb)
Winds: calm
Visibility: 10 or more miles (16+ km)
Ceiling: at least 12,000 feet AGL
Clouds: sky clear below 12,000 feet AGL
Present Weather: automated observation with no human augmentation;
there may or may not be significant weather present at this time
KZPH 151655Z AUTO 00000KT 10SM CLR 32/24 A3009 RMK AO2 T03190236

Conditions at: KZPH observed 15 July 2018  16:35 UTC
Temperature: 31.6°C (89°F)
Dewpoint: 23.0°C (73°F) [RH = 60%]
Pressure (altimeter): 30.09 inches Hg (1019.0 mb)
Winds: from the SSE (160 degrees) at 5 MPH (4 knots; 2.1 m/s)
Visibility: 10 or more miles (16+ km)
Ceiling: at least 12,000 feet AGL
Clouds: sky clear below 12,000 feet AGL
Present Weather: automated observation with no human augmentation;
there may or may not be significant weather present at this time
KZPH 151635Z AUTO 16004KT 10SM CLR 32/23 A3009 RMK AO2 T03160230

Conditions at: KZPH observed 15 July 2018  16:15 UTC
Temperature: 31.1°C (88°F)
Dewpoint: 22.9°C (73°F) [RH = 62%]
Pressure (altimeter): 30.09 inches Hg (1019.0 mb)
Winds: from the SE (130 degrees) at 3 MPH (3 knots; 1.6 m/s)
Visibility: 10 or more miles (16+ km)
Ceiling: at least 12,000 feet AGL
Clouds: sky clear below 12,000 feet AGL
Present Weather: automated observation with no human augmentation;
there may or may not be significant weather present at this time
KZPH 151615Z AUTO 13003KT 10SM CLR 31/23 A3009 RMK AO2 T03110229

Conditions at: KZPH observed 15 July 2018  15:55 UTC
Temperature: 30.6°C (87°F)
Dewpoint: 23.4°C (74°F) [RH = 66%]
Pressure (altimeter): 30.10 inches Hg (1019.4 mb)
Winds: calm
Visibility: 10 or more miles (16+ km)
Ceiling: at least 12,000 feet AGL
Clouds: sky clear below 12,000 feet AGL
Present Weather: automated observation with no human augmentation;
there may or may not be significant weather present at this time
KZPH 151555Z AUTO 00000KT 10SM CLR 31/23 A3010 RMK AO2 LTG DSNT NE T03060234

Conditions at: KZPH observed 15 July 2018  15:35 UTC
Temperature: 30.7°C (87°F)
Dewpoint: 24.5°C (76°F) [RH = 70%]
Pressure (altimeter): 30.10 inches Hg (1019.4 mb)
Winds: calm
Visibility: 10 or more miles (16+ km)
Ceiling: at least 12,000 feet AGL
Clouds: sky clear below 12,000 feet AGL
Present Weather: automated observation with no human augmentation;
there may or may not be significant weather present at this time
KZPH 151535Z AUTO 00000KT 10SM CLR 31/25 A3010 RMK AO2 T03070245

Conditions at: KZPH observed 15 July 2018  15:15 UTC
Temperature: 29.6°C (85°F)
Dewpoint: 24.2°C (76°F) [RH = 73%]
Pressure (altimeter): 30.10 inches Hg (1019.4 mb)
Winds: calm
Visibility: 10 or more miles (16+ km)
Ceiling: at least 12,000 feet AGL
Clouds: sky clear below 12,000 feet AGL
Present Weather: automated observation with no human augmentation;
there may or may not be significant weather present at this time
KZPH 151515Z AUTO 00000KT 10SM CLR 30/24 A3010 RMK AO2 T02960242

Conditions at: KZPH observed 15 July 2018  14:55 UTC
Temperature: 29.2°C (85°F)
Dewpoint: 24.8°C (77°F) [RH = 77%]
Pressure (altimeter): 30.10 inches Hg (1019.4 mb)
Winds: from the SE (140 degrees) at 3 MPH (3 knots; 1.6 m/s)
Visibility: 10 or more miles (16+ km)
Ceiling: at least 12,000 feet AGL
Clouds: sky clear below 12,000 feet AGL
Present Weather: automated observation with no human augmentation;
there may or may not be significant weather present at this time
KZPH 151455Z AUTO 14003KT 10SM CLR 29/25 A3010 RMK AO2 T02920248

Conditions at: KZPH observed 15 July 2018  14:35 UTC
Temperature: 28.7°C (84°F)
Dewpoint: 24.1°C (75°F) [RH = 76%]
Pressure (altimeter): 30.10 inches Hg (1019.4 mb)
Winds: calm
Visibility: 10 or more miles (16+ km)
Ceiling: at least 12,000 feet AGL
Clouds: sky clear below 12,000 feet AGL
Present Weather: automated observation with no human augmentation;
there may or may not be significant weather present at this time
KZPH 151435Z AUTO 00000KT 10SM CLR 29/24 A3010 RMK AO2 T02870241

Conditions at: KZPH observed 15 July 2018  14:15 UTC
Temperature: 28.3°C (83°F)
Dewpoint: 24.7°C (76°F) [RH = 81%]
Pressure (altimeter): 30.09 inches Hg (1019.0 mb)
Winds: calm
Visibility: 10 or more miles (16+ km)
Ceiling: at least 12,000 feet AGL
Clouds: sky clear below 12,000 feet AGL
Present Weather: automated observation with no human augmentation;
there may or may not be significant weather present at this time
KZPH 151415Z AUTO 00000KT 10SM CLR 28/25 A3009 RMK AO2 T02830247

Conditions at: KZPH observed 15 July 2018  13:55 UTC
Temperature: 27.3°C (81°F)
Dewpoint: 24.3°C (76°F) [RH = 84%]
Pressure (altimeter): 30.10 inches Hg (1019.4 mb)
Winds: calm
Visibility: 10 or more miles (16+ km)
Ceiling: at least 12,000 feet AGL
Clouds: sky clear below 12,000 feet AGL
Present Weather: automated observation with no human augmentation;
there may or may not be significant weather present at this time
KZPH 151355Z AUTO 00000KT 10SM CLR 27/24 A3010 RMK AO2 T02730243

Conditions at: KZPH observed 15 July 2018  13:35 UTC
Temperature: 26.5°C (80°F)
Dewpoint: 24.3°C (76°F) [RH = 88%]
Pressure (altimeter): 30.10 inches Hg (1019.4 mb)
Winds: calm
Visibility: 10 or more miles (16+ km)
Ceiling: at least 12,000 feet AGL
Clouds: sky clear below 12,000 feet AGL
Present Weather: automated observation with no human augmentation;
there may or may not be significant weather present at this time
KZPH 151335Z AUTO 00000KT 10SM CLR 27/24 A3010 RMK AO2 T02650243

Conditions at: KZPH observed 15 July 2018  12:55 UTC
Temperature: 24.4°C (76°F)
Dewpoint: 24.0°C (75°F) [RH = 98%]
Pressure (altimeter): 30.08 inches Hg (1018.7 mb)
Winds: calm
Visibility: 10 or more miles (16+ km)
Ceiling: at least 12,000 feet AGL
Clouds: sky clear below 12,000 feet AGL
Present Weather: automated observation with no human augmentation;
there may or may not be significant weather present at this time
KZPH 151255Z AUTO 00000KT 10SM CLR 24/24 A3008 RMK AO2 T02440240

Conditions at: KZPH observed 15 July 2018  12:35 UTC
Temperature: 24.0°C (75°F)
Dewpoint: 23.8°C (75°F) [RH = 99%]
Pressure (altimeter): 30.08 inches Hg (1018.7 mb)
Winds: calm
Visibility: 10 or more miles (16+ km)
Ceiling: at least 12,000 feet AGL
Clouds: sky clear below 12,000 feet AGL
Present Weather: automated observation with no human augmentation;
there may or may not be significant weather present at this time
KZPH 151235Z AUTO 00000KT 10SM CLR 24/24 A3008 RMK AO2 T02400238

Conditions at: KZPH observed 15 July 2018  12:15 UTC
Temperature: 23.4°C (74°F)
Dewpoint: 23.2°C (74°F) [RH = 99%]
Pressure (altimeter): 30.07 inches Hg (1018.4 mb)
Winds: calm
Visibility: 7 miles (11 km)
Ceiling: at least 12,000 feet AGL
Clouds: sky clear below 12,000 feet AGL
Present Weather: automated observation with no human augmentation;
there may or may not be significant weather present at this time
KZPH 151215Z AUTO 00000KT 7SM CLR 23/23 A3007 RMK AO2 T02340232

Conditions at: KZPH observed 15 July 2018  11:55 UTC
Temperature: 23.0°C (73°F)
Dewpoint: 22.8°C (73°F) [RH = 99%]
Pressure (altimeter): 30.07 inches Hg (1018.4 mb)
Winds: calm
Visibility: 5 miles (8 km)
Ceiling: at least 12,000 feet AGL
Clouds: sky clear below 12,000 feet AGL
Present Weather: BR  (mist)
KZPH 151155Z AUTO 00000KT 5SM BR CLR 23/23 A3007 RMK AO2 70060 T02300228 10240 20224

Conditions at: KZPH observed 15 July 2018  11:35 UTC
Temperature: 22.7°C (73°F)
Dewpoint: 22.5°C (72°F) [RH = 99%]
Pressure (altimeter): 30.06 inches Hg (1018.0 mb)
Winds: calm
Visibility: 7 miles (11 km)
Ceiling: at least 12,000 feet AGL
Clouds: sky clear below 12,000 feet AGL
Present Weather: automated observation with no human augmentation;
there may or may not be significant weather present at this time
KZPH 151135Z AUTO 00000KT 7SM CLR 23/23 A3006 RMK AO2 T02270225

Conditions at: KZPH observed 15 July 2018  11:15 UTC
Temperature: 22.5°C (72°F)
Dewpoint: 22.3°C (72°F) [RH = 99%]
Pressure (altimeter): 30.07 inches Hg (1018.4 mb)
Winds: calm
Visibility: 4 miles (6 km)
Ceiling: at least 12,000 feet AGL
Clouds: sky clear below 12,000 feet AGL
Present Weather: BR  (mist)
KZPH 151115Z AUTO 00000KT 4SM BR CLR 23/22 A3007 RMK AO2 T02250223

Conditions at: KZPH observed 15 July 2018  10:55 UTC
Temperature: 22.7°C (73°F)
Dewpoint: 22.5°C (72°F) [RH = 99%]
Pressure (altimeter): 30.06 inches Hg (1018.0 mb)
Winds: calm
Visibility: 7 miles (11 km)
Ceiling: at least 12,000 feet AGL
Clouds: sky clear below 12,000 feet AGL
Present Weather: automated observation with no human augmentation;
there may or may not be significant weather present at this time
KZPH 151055Z AUTO 00000KT 7SM CLR 23/23 A3006 RMK AO2 LTG DSNT NE AND S T02270225

Conditions at: KZPH observed 15 July 2018  10:35 UTC
Temperature: 22.8°C (73°F)
Dewpoint: 22.6°C (73°F) [RH = 99%]
Pressure (altimeter): 30.05 inches Hg (1017.7 mb)
Winds: calm
Visibility: 7 miles (11 km)
Ceiling: at least 12,000 feet AGL
Clouds: sky clear below 12,000 feet AGL
Present Weather: automated observation with no human augmentation;
there may or may not be significant weather present at this time
KZPH 151035Z AUTO 00000KT 7SM CLR 23/23 A3005 RMK AO2 LTG DSNT S T02280226

Conditions at: KZPH observed 15 July 2018  10:15 UTC
Temperature: 23.0°C (73°F)
Dewpoint: 22.7°C (73°F) [RH = 98%]
Pressure (altimeter): 30.05 inches Hg (1017.7 mb)
Winds: calm
Visibility: 10 or more miles (16+ km)
Ceiling: at least 12,000 feet AGL
Clouds: sky clear below 12,000 feet AGL
Present Weather: automated observation with no human augmentation;
there may or may not be significant weather present at this time
KZPH 151015Z AUTO 00000KT 10SM CLR 23/23 A3005 RMK AO2 T02300227

Conditions at: KZPH observed 15 July 2018  09:55 UTC
Temperature: 23.0°C (73°F)
Dewpoint: 22.8°C (73°F) [RH = 99%]
Pressure (altimeter): 30.05 inches Hg (1017.7 mb)
Winds: calm
Visibility: 7 miles (11 km)
Ceiling: at least 12,000 feet AGL
Clouds: sky clear below 12,000 feet AGL
Present Weather: automated observation with no human augmentation;
there may or may not be significant weather present at this time
KZPH 150955Z AUTO 00000KT 7SM CLR 23/23 A3005 RMK AO2 T02300228

Conditions at: KZPH observed 15 July 2018  09:35 UTC
Temperature: 23.1°C (74°F)
Dewpoint: 23.0°C (73°F) [RH = 99%]
Pressure (altimeter): 30.06 inches Hg (1018.0 mb)
Winds: calm
Visibility: 10 or more miles (16+ km)
Ceiling: at least 12,000 feet AGL
Clouds: sky clear below 12,000 feet AGL
Present Weather: automated observation with no human augmentation;
there may or may not be significant weather present at this time
KZPH 150935Z AUTO 00000KT 10SM CLR 23/23 A3006 RMK AO2 T02310230

Conditions at: KZPH observed 15 July 2018  09:15 UTC
Temperature: 23.0°C (73°F)
Dewpoint: 22.8°C (73°F) [RH = 99%]
Pressure (altimeter): 30.06 inches Hg (1018.0 mb)
Winds: calm
Visibility: 10 or more miles (16+ km)
Ceiling: at least 12,000 feet AGL
Clouds: sky clear below 12,000 feet AGL
Present Weather: automated observation with no human augmentation;
there may or may not be significant weather present at this time
KZPH 150915Z AUTO 00000KT 10SM CLR 23/23 A3006 RMK AO2 LTG DSNT NE T02300228

Conditions at: KZPH observed 15 July 2018  08:55 UTC
Temperature: 23.0°C (73°F)
Dewpoint: 22.8°C (73°F) [RH = 99%]
Pressure (altimeter): 30.06 inches Hg (1018.0 mb)
Winds: calm
Visibility: 10 or more miles (16+ km)
Ceiling: at least 12,000 feet AGL
Clouds: sky clear below 12,000 feet AGL
Present Weather: automated observation with no human augmentation;
there may or may not be significant weather present at this time
KZPH 150855Z AUTO 00000KT 10SM CLR 23/23 A3006 RMK AO2 T02300228

Conditions at: KZPH observed 15 July 2018  08:35 UTC
Temperature: 23.1°C (74°F)
Dewpoint: 22.7°C (73°F) [RH = 98%]
Pressure (altimeter): 30.06 inches Hg (1018.0 mb)
Winds: calm
Visibility: 7 miles (11 km)
Ceiling: at least 12,000 feet AGL
Clouds: sky clear below 12,000 feet AGL
Present Weather: automated observation with no human augmentation;
there may or may not be significant weather present at this time
KZPH 150835Z AUTO 00000KT 7SM CLR 23/23 A3006 RMK AO2 T02310227

Conditions at: KZPH observed 15 July 2018  08:15 UTC
Temperature: 23.3°C (74°F)
Dewpoint: 23.1°C (74°F) [RH = 99%]
Pressure (altimeter): 30.06 inches Hg (1018.0 mb)
Winds: calm
Visibility: 10 or more miles (16+ km)
Ceiling: at least 12,000 feet AGL
Clouds: sky clear below 12,000 feet AGL
Present Weather: automated observation with no human augmentation;
there may or may not be significant weather present at this time
KZPH 150815Z AUTO 00000KT 10SM CLR 23/23 A3006 RMK AO2 T02330231

Conditions at: KZPH observed 15 July 2018  07:55 UTC
Temperature: 23.3°C (74°F)
Dewpoint: 23.1°C (74°F) [RH = 99%]
Pressure (altimeter): 30.06 inches Hg (1018.0 mb)
Winds: calm
Visibility: 10 or more miles (16+ km)
Ceiling: at least 12,000 feet AGL
Clouds: sky clear below 12,000 feet AGL
Present Weather: automated observation with no human augmentation;
there may or may not be significant weather present at this time
KZPH 150755Z AUTO 00000KT 10SM CLR 23/23 A3006 RMK AO2 T02330231

Conditions at: KZPH observed 15 July 2018  07:35 UTC
Temperature: 23.3°C (74°F)
Dewpoint: 23.1°C (74°F) [RH = 99%]
Pressure (altimeter): 30.06 inches Hg (1018.0 mb)
Winds: calm
Visibility: 10 or more miles (16+ km)
Ceiling: at least 12,000 feet AGL
Clouds: sky clear below 12,000 feet AGL
Present Weather: automated observation with no human augmentation;
there may or may not be significant weather present at this time
KZPH 150735Z AUTO 00000KT 10SM CLR 23/23 A3006 RMK AO2 T02330231

Conditions at: KZPH observed 15 July 2018  07:15 UTC
Temperature: 23.6°C (74°F)
Dewpoint: 23.5°C (74°F) [RH = 99%]
Pressure (altimeter): 30.06 inches Hg (1018.0 mb)
Winds: calm
Visibility: 10 or more miles (16+ km)
Ceiling: at least 12,000 feet AGL
Clouds: sky clear below 12,000 feet AGL
Present Weather: automated observation with no human augmentation;
there may or may not be significant weather present at this time
KZPH 150715Z AUTO 00000KT 10SM CLR 24/24 A3006 RMK AO2 T02360235

Conditions at: KZPH observed 15 July 2018  06:55 UTC
Temperature: 23.4°C (74°F)
Dewpoint: 23.0°C (73°F) [RH = 98%]
Pressure (altimeter): 30.06 inches Hg (1018.0 mb)
Winds: calm
Visibility: 10 or more miles (16+ km)
Ceiling: at least 12,000 feet AGL
Clouds: sky clear below 12,000 feet AGL
Present Weather: automated observation with no human augmentation;
there may or may not be significant weather present at this time
KZPH 150655Z AUTO 00000KT 10SM CLR 23/23 A3006 RMK AO2 T02340230

Conditions at: KZPH observed 15 July 2018  06:35 UTC
Temperature: 23.8°C (75°F)
Dewpoint: 23.5°C (74°F) [RH = 98%]
Pressure (altimeter): 30.07 inches Hg (1018.4 mb)
Winds: calm
Visibility: 7 miles (11 km)
Ceiling: at least 12,000 feet AGL
Clouds: sky clear below 12,000 feet AGL
Present Weather: automated observation with no human augmentation;
there may or may not be significant weather present at this time
KZPH 150635Z AUTO 00000KT 7SM CLR 24/24 A3007 RMK AO2 T02380235

Conditions at: KZPH observed 15 July 2018  05:55 UTC
Temperature: 24.0°C (75°F)
Dewpoint: 23.6°C (74°F) [RH = 98%]
Pressure (altimeter): 30.08 inches Hg (1018.7 mb)
Winds: calm
Visibility: 10 or more miles (16+ km)
Ceiling: at least 12,000 feet AGL
Clouds: sky clear below 12,000 feet AGL
Present Weather: automated observation with no human augmentation;
there may or may not be significant weather present at this time
KZPH 150555Z AUTO 00000KT 10SM CLR 24/24 A3008 RMK AO2 T02400236 10265 20239 403510220

Conditions at: KZPH observed 15 July 2018  05:35 UTC
Temperature: 23.9°C (75°F)
Dewpoint: 23.6°C (74°F) [RH = 98%]
Pressure (altimeter): 30.08 inches Hg (1018.7 mb)
Winds: calm
Visibility: 10 or more miles (16+ km)
Ceiling: at least 12,000 feet AGL
Clouds: sky clear below 12,000 feet AGL
Present Weather: automated observation with no human augmentation;
there may or may not be significant weather present at this time
KZPH 150535Z AUTO 00000KT 10SM CLR 24/24 A3008 RMK AO2 T02390236

Conditions at: KZPH observed 15 July 2018  05:15 UTC
Temperature: 24.0°C (75°F)
Dewpoint: 23.6°C (74°F) [RH = 98%]
Pressure (altimeter): 30.08 inches Hg (1018.7 mb)
Winds: calm
Visibility: 10 or more miles (16+ km)
Ceiling: at least 12,000 feet AGL
Clouds: sky clear below 12,000 feet AGL
Present Weather: automated observation with no human augmentation;
there may or may not be significant weather present at this time
KZPH 150515Z AUTO 00000KT 10SM CLR 24/24 A3008 RMK AO2 T02400236

Conditions at: KZPH observed 15 July 2018  04:55 UTC
Temperature: 24.3°C (76°F)
Dewpoint: 23.9°C (75°F) [RH = 98%]
Pressure (altimeter): 30.08 inches Hg (1018.7 mb)
Winds: calm
Visibility: 7 miles (11 km)
Ceiling: at least 12,000 feet AGL
Clouds: sky clear below 12,000 feet AGL
Present Weather: automated observation with no human augmentation;
there may or may not be significant weather present at this time
KZPH 150455Z AUTO 00000KT 7SM CLR 24/24 A3008 RMK AO2 T02430239

Conditions at: KZPH observed 15 July 2018  04:35 UTC
Temperature: 24.4°C (76°F)
Dewpoint: 24.0°C (75°F) [RH = 98%]
Pressure (altimeter): 30.08 inches Hg (1018.7 mb)
Winds: calm
Visibility: 10 or more miles (16+ km)
Ceiling: at least 12,000 feet AGL
Clouds: sky clear below 12,000 feet AGL
Present Weather: automated observation with no human augmentation;
there may or may not be significant weather present at this time
KZPH 150435Z AUTO 00000KT 10SM CLR 24/24 A3008 RMK AO2 T02440240

Conditions at: KZPH observed 15 July 2018  04:15 UTC
Temperature: 24.5°C (76°F)
Dewpoint: 24.0°C (75°F) [RH = 97%]
Pressure (altimeter): 30.09 inches Hg (1019.0 mb)
Winds: calm
Visibility: 10 or more miles (16+ km)
Ceiling: at least 12,000 feet AGL
Clouds: sky clear below 12,000 feet AGL
Present Weather: automated observation with no human augmentation;
there may or may not be significant weather present at this time
KZPH 150415Z AUTO 00000KT 10SM CLR 25/24 A3009 RMK AO2 T02450240